aviador You're here:

KAMG Decoded Metar

ALMA in GA, USA
Report Time2018-07-18 22:53:00
UTC Time2018-07-18 23:52:02
Flight Rules vfr VFR
WindVRB at 03 kt
Visibility9999 m
Phenomena:N/A
Clouds:Few 050 Hf
Expected CloudBase > 3,200 ft AGL from Temp-Dew spread
CeilingNone
Temp31°C (ISA +16)
Dew Point23°C (62% RH)
Heat Index35.4°C
QNH1012 hPa
Density Alt2,470 ft
Elevation194 ft
Report Wrong Elevation
Raw Report
METAR KAMG 182253Z AUTO VRB03KT 10SM FEW050 31/23 A2989 RMK AO2 SLP119
T03060233 TSNO=

Extra information for KAMG:More info

Metar Taf Metar & Taf Last 4 Metars F.Rules Stats Wind Profile Meteogram Temp Stats Airport Information Weather charts Add Link Nearby VenuesMetar ALERT Operation Metar Decoded Social comments

AIRNAV info for KAMG